Impacts METAR Board
IDs:

KMSP - Minneapolis-St Paul, MN, US

Updated at: 0600 UTC 24 Jan 2019
Potential Impact None Slight Moderate High
Time 23/18Z 23/19Z 23/20Z 23/21Z 23/22Z 23/23Z 24/00Z 24/01Z 24/02Z 24/03Z 24/04Z 24/05Z 24/06Z
Temp20 22 23 23 23 21 20 20 20 20 20 20 20
Dewpt12 13 13 13 13 13 13 13 14 14 14 15 15
Altim29.87 29.83 29.83 29.83 29.83 29.81 29.80 29.80 29.80 29.79 29.79 29.77 29.77
VIS10 10 10 10 10 10 10 10 10 10 10 10 10
CIG-- -- -- -- 120 -- -- 33 22 22 20 18 17
CoverFEWFEWFEWSCTBKNSCTCLRBKNOVCOVCOVCOVCOVC
FltCatVFRVFRVFRVFRVFRVFRVFRVFRMVFRMVFRMVFRMVFRMVFR
WX--------------------------
WDir02902502502302302301902102202300250
WSpd5 4 9 7 8 7 6 5 6 6 3 0 4
WGst-- -- -- -- -- -- -- -- -- -- -- -- --
Raw hourly METARs
KMSP 231753Z VRB05KT 10SM FEW020 FEW250 M07/M11 A2987 RMK AO2 SLP131 4/001 60000 T10671111 11067 21100 58018
KMSP 231853Z 29004KT 10SM FEW250 M06/M11 A2983 RMK AO2 SLP118 T10561106
KMSP 231953Z 25009KT 10SM FEW025 FEW250 M05/M11 A2983 RMK AO2 SLP115 T10501106
KMSP 232053Z 25007KT 10SM SCT120 SCT250 M05/M11 A2983 RMK AO2 SLP115 T10501106 56014
KMSP 232153Z 23008KT 10SM BKN120 M05/M11 A2983 RMK AO2 SLP114 T10501106
KMSP 232253Z 23007KT 10SM SCT095 SCT120 M06/M11 A2981 RMK AO2 SLP109 T10611106
KMSP 232353Z 23006KT 10SM CLR M07/M11 A2980 RMK AO2 SLP106 4/001 T10671106 11044 21067 58009
KMSP 240053Z 19005KT 10SM BKN033 M07/M11 A2980 RMK AO2 SLP107 T10671106
KMSP 240153Z 21006KT 10SM OVC022 M07/M10 A2980 RMK AO2 SLP105 T10671100
KMSP 240253Z 22006KT 10SM OVC022 M07/M10 A2979 RMK AO2 SLP102 T10671100 58003
KMSP 240353Z 23003KT 10SM OVC020 M07/M10 A2979 RMK AO2 SLP101 T10671100
KMSP 240453Z 00000KT 10SM OVC018 M07/M09 A2977 RMK AO2 SLP095 T10671094
KMSP 240553Z 25004KT 10SM OVC017 M07/M09 A2977 RMK AO2 SLP097 4/001 T10671094 11067 21072 410441128 55005



Page loaded:  06:31 UTC  |   10:31 PM Pacific  |   11:31 PM Mountain  |   12:31 AM Central  |   01:31 AM Eastern

 

ADVISORIES

FORECASTS

FORECASTS

OBSERVATIONS

USER TOOLS

ABOUT US